Arcata, California
Current Conditions -  °F | °C
As of 5:26 AM on Thursday 23 Oct 2014 (Local Time) from KACV Reporting Station
Light Rain Light Rain  
Wind Chill: 60°   Ceiling: 2600
Heat Index: 60°   Visibility: 3mi
Dew Point: 58°   Wind: 7mph
Humidity: 93%   Direction: 130°SE
Pressure: 29.9"   Gusts: NA
Location:  40.87°N, 124.08°W
Report Text: KACV 231226Z AUTO 13006KT 3SM -RA BR OVC026 16/14 A2990 RMK AO2 P0003 T01560144
Loading
Personal Weather Stations






























Interactive Weather Map New forecast layout! Learn more

10-Day Weather Forecast

Advertisements
Track Severe Weather on mobile